Latest Weather Observations for Eildon Fire Tower

IDV60801

Issued at 4:12 pm EDT Thursday 28 January 2021 (issued every 10 minutes, with the page automatically refreshed every 10 minutes)

About weather observations | Map of weather stations | Latest weather observations for VIC | Other Formats
Station Details ID: 088164 Name: EILDON FIRE TOWER Lat: -37.21 Lon: 145.84 Height: 637.0 m
Data from the previous 72 hours. | See also: Recent months at Eildon Fire Tower
Date/Time
EDT
Temp
°C
App
Temp
°C
Dew
Point
°C
Rel
Hum
%
Delta-T
°C
Wind Press
QNH
hPa
Press
MSL
hPa
Rain since
9am
mm
Dir  Spd
km/h
Gust
km/h
Spd
kts
Gust
kts
28/04:00pm 15.9 12.3 14.1 89 1.1 E 26 37 14 20 - - 0.8
28/03:30pm 16.6 13.6 13.7 83 1.7 E 22 32 12 17 - - 0.4
28/03:00pm 17.4 14.3 13.3 77 2.4 ESE 22 35 12 19 - - 0.0
28/02:30pm 18.9 14.6 12.2 65 3.8 E 26 39 14 21 - - 0.0
28/02:00pm 19.5 14.3 12.8 65 3.9 E 32 41 17 22 - - 0.0
28/01:30pm 18.3 12.3 12.1 67 3.5 E 35 50 19 27 - - 0.0
28/01:00pm 18.9 12.8 11.9 64 4.0 E 35 50 19 27 - - 0.0
28/12:30pm 19.0 13.3 11.8 63 4.1 E 33 46 18 25 - - 0.0
28/12:02pm 18.1 13.1 12.3 69 3.3 E 30 48 16 26 - - 0.0
28/12:00pm 17.9 12.5 12.1 69 3.3 E 32 48 17 26 - - 0.0
28/11:30am 18.4 13.1 11.2 63 4.0 E 30 37 16 20 - - 0.0
28/11:00am 18.5 12.6 11.1 62 4.1 E 33 44 18 24 - - 0.0
28/10:30am 18.5 12.2 11.1 62 4.1 E 35 48 19 26 - - 0.0
28/10:00am 17.9 12.9 10.8 63 3.9 E 28 48 15 26 - - 0.0
28/09:30am 17.5 11.6 10.6 64 3.8 E 32 46 17 25 - - 0.0
28/09:00am 17.0 11.1 10.6 66 3.5 E 32 43 17 23 - - 0.0
28/08:30am 16.6 10.1 10.2 66 3.5 E 35 50 19 27 - - 0.0
28/08:00am 16.3 10.1 10.2 67 3.3 E 33 43 18 23 - - 0.0
28/07:48am 16.2 10.0 10.1 67 3.3 ESE 33 54 18 29 - - 0.0
28/07:30am 16.2 9.6 10.1 67 3.3 E 35 50 19 27 - - 0.0
28/07:00am 15.9 10.7 10.2 69 3.1 E 28 44 15 24 - - 0.0
28/06:30am 15.7 10.4 10.0 69 3.1 E 28 41 15 22 - - 0.0
28/06:00am 15.8 10.2 10.1 69 3.1 E 30 46 16 25 - - 0.0
28/05:34am 15.7 9.7 10.0 69 3.1 ESE 32 52 17 28 - - 0.0
28/05:30am 15.8 9.6 10.1 69 3.1 ESE 33 52 18 28 - - 0.0
28/05:21am 15.7 10.4 10.0 69 3.1 E 28 46 15 25 - - 0.0
28/05:00am 15.8 8.5 10.1 69 3.1 ESE 39 52 21 28 - - 0.0
28/04:30am 15.9 9.9 10.0 68 3.2 E 32 43 17 23 - - 0.0
28/04:07am 15.9 9.9 10.0 68 3.2 ESE 32 50 17 27 - - 0.0
28/04:00am 15.9 10.3 10.0 68 3.2 ESE 30 43 16 23 - - 0.0
28/03:30am 15.9 9.4 10.2 69 3.1 ESE 35 61 19 33 - - 0.0
28/03:27am 15.9 8.9 10.0 68 3.2 ESE 37 61 20 33 - - 0.0
28/03:00am 15.8 8.5 10.1 69 3.1 ESE 39 54 21 29 - - 0.0
28/02:36am 15.7 9.2 10.2 70 3.0 ESE 35 54 19 29 - - 0.0
28/02:30am 15.7 8.0 10.2 70 3.0 ESE 41 57 22 31 - - 0.0
28/02:00am 15.8 8.1 10.3 70 3.0 ESE 41 65 22 35 - - 0.0
28/01:30am 15.8 8.2 10.6 71 2.8 ESE 41 61 22 33 - - 0.0
28/01:00am 15.9 8.3 10.4 70 3.0 E 41 61 22 33 - - 0.0
28/12:30am 16.0 9.2 10.5 70 3.0 ESE 37 56 20 30 - - 0.0
28/12:00am 16.2 8.2 10.5 69 3.1 ESE 43 63 23 34 - - 0.0
 
Date/Time
EDT
Temp
°C
App
Temp
°C
Dew
Point
°C
Rel
Hum
%
Delta-T
°C
Wind Press
QNH
hPa
Press
MSL
hPa
Rain since
9am
mm
Dir  Spd
km/h
Gust
km/h
Spd
kts
Gust
kts
27/11:30pm 16.2 8.9 10.1 67 3.3 E 39 69 21 37 - - 0.0
27/11:09pm 16.3 9.3 9.9 66 3.5 ESE 37 63 20 34 - - 0.0
27/11:00pm 16.4 8.2 9.8 65 3.6 ESE 43 57 23 31 - - 0.0
27/10:30pm 16.5 8.6 9.4 63 3.8 ESE 41 61 22 33 - - 0.0
27/10:00pm 16.8 9.6 9.0 60 4.2 ESE 37 59 20 32 - - 0.0
27/09:30pm 17.4 10.5 8.8 57 4.6 ESE 35 57 19 31 - - 0.0
27/09:00pm 18.1 9.9 8.1 52 5.3 ESE 41 65 22 35 - - 0.0
27/08:31pm 18.9 10.6 7.7 48 5.9 ESE 41 61 22 33 - - 0.0
27/08:30pm 18.9 10.2 7.7 48 5.9 ESE 43 61 23 33 - - 0.0
27/08:01pm 20.0 12.9 8.0 46 6.4 ESE 35 54 19 29 - - 0.0
27/08:00pm 20.1 12.6 7.8 45 6.5 ESE 37 54 20 29 - - 0.0
27/07:30pm 20.8 15.1 8.4 45 6.7 ESE 28 50 15 27 - - 0.0
27/07:00pm 21.8 15.5 9.0 44 7.0 SE 32 50 17 27 - - 0.0
27/06:55pm 21.9 15.6 9.1 44 7.0 SE 32 50 17 27 - - 0.0
27/06:30pm 23.1 19.0 10.2 44 7.3 ESE 22 44 12 24 - - 0.0
27/06:00pm 24.1 20.5 10.7 43 7.7 ESE 20 32 11 17 - - 0.0
27/05:30pm 25.3 22.2 10.4 39 8.5 SE 17 33 9 18 - - 0.0
27/05:00pm 26.6 23.9 10.3 36 9.4 SE 15 26 8 14 - - 0.0
27/04:30pm 26.2 23.4 8.7 33 9.8 SE 13 22 7 12 - - 0.0
27/04:00pm 26.3 23.9 8.8 33 9.8 ESE 11 24 6 13 - - 0.0
27/03:30pm 25.9 22.5 9.3 35 9.4 ESE 17 26 9 14 - - 0.0
27/03:00pm 26.6 24.4 10.7 37 9.2 E 13 24 7 13 - - 0.0
27/02:30pm 24.6 22.0 9.3 38 8.6 SE 13 24 7 13 - - 0.0
27/02:00pm 24.2 21.8 10.1 41 8.0 SE 13 22 7 12 - - 0.0
27/01:30pm 23.9 21.5 9.9 41 7.9 SE 13 24 7 13 - - 0.0
27/01:00pm 22.5 20.1 8.6 41 7.6 SE 11 19 6 10 - - 0.0
27/12:30pm 21.6 19.4 9.2 45 6.8 SE 11 22 6 12 - - 0.0
27/12:00pm 20.1 18.6 9.1 49 6.0 SSE 7 20 4 11 - - 0.0
27/11:30am 19.3 17.9 9.5 53 5.4 SE 7 15 4 8 - - 0.0
27/11:00am 17.2 15.3 7.5 53 5.0 SW 7 13 4 7 - - 0.0
27/10:30am 16.5 14.6 7.7 56 4.6 SSE 7 13 4 7 - - 0.0
27/10:00am 16.0 13.7 7.5 57 4.4 SE 9 19 5 10 - - 0.0
27/09:30am 13.5 11.4 6.6 63 3.4 S 7 15 4 8 - - 0.0
27/09:00am 10.6 8.3 5.6 71 2.4 SW 7 11 4 6 - - 1.4
27/08:30am 10.3 7.5 5.3 71 2.4 S 9 20 5 11 - - 1.4
27/08:00am 8.5 6.0 4.7 77 1.7 SW 7 9 4 5 - - 1.4
27/07:30am 7.5 4.2 4.3 80 1.4 WSW 11 17 6 9 - - 1.4
27/07:00am 7.3 3.2 4.4 82 1.3 WSW 15 17 8 9 - - 1.4
27/06:30am 7.4 3.0 4.9 84 1.1 WSW 17 19 9 10 - - 1.4
27/06:00am 7.8 3.8 5.1 83 1.2 WSW 15 19 8 10 - - 1.4
27/05:30am 8.3 5.1 5.2 81 1.4 WSW 11 15 6 8 - - 1.4
27/05:00am 8.4 6.1 5.5 82 1.4 WSW 7 9 4 5 - - 1.4
27/04:30am 8.7 6.1 6.0 83 1.3 WSW 9 11 5 6 - - 1.4
27/04:00am 8.9 6.3 6.2 83 1.3 WSW 9 11 5 6 - - 1.4
27/03:30am 9.1 5.9 6.7 85 1.2 WSW 13 15 7 8 - - 1.4
27/03:00am 9.7 6.6 7.3 85 1.2 WSW 13 15 7 8 - - 1.4
27/02:30am 10.0 7.4 7.6 85 1.2 SW 11 13 6 7 - - 1.4
27/02:00am 10.6 8.4 7.8 83 1.4 SW 9 13 5 7 - - 1.4
27/01:30am 10.7 8.3 8.6 87 1.1 WSW 11 13 6 7 - - 1.4
27/01:00am 11.1 8.5 9.2 88 1.0 SW 13 19 7 10 - - 1.4
27/12:30am 11.6 9.8 9.3 86 1.2 SW 9 11 5 6 - - 1.4
27/12:00am 12.3 10.9 9.5 83 1.5 SW 7 9 4 5 - - 1.4
 
Date/Time
EDT
Temp
°C
App
Temp
°C
Dew
Point
°C
Rel
Hum
%
Delta-T
°C
Wind Press
QNH
hPa
Press
MSL
hPa
Rain since
9am
mm
Dir  Spd
km/h
Gust
km/h
Spd
kts
Gust
kts
26/11:30pm 12.8 10.2 9.3 79 1.8 S 13 19 7 10 - - 1.4
26/11:00pm 13.2 11.3 9.1 76 2.1 SSW 9 13 5 7 - - 1.4
26/10:30pm 13.8 13.1 10.0 78 2.0 SSE 4 6 2 3 - - 1.4
26/10:00pm 14.1 13.4 10.1 77 2.1 SSE 4 6 2 3 - - 1.4
26/09:30pm 14.3 13.0 10.1 76 2.3 SSW 7 9 4 5 - - 1.4
26/09:00pm 14.4 12.0 10.0 75 2.4 SW 13 20 7 11 - - 1.4
26/08:30pm 14.6 11.5 10.2 75 2.4 WSW 17 26 9 14 - - 1.4
26/08:00pm 14.8 10.8 10.6 76 2.3 WSW 22 32 12 17 - - 1.4
26/07:30pm 15.5 10.1 10.9 74 2.5 WSW 30 39 16 21 - - 1.4
26/07:00pm 15.5 9.8 11.3 76 2.3 WSW 32 43 17 23 - - 1.4
26/06:30pm 16.5 10.1 11.9 74 2.6 WSW 37 44 20 24 - - 1.4
26/06:00pm 17.3 11.2 11.8 70 3.1 WSW 35 50 19 27 - - 1.4
26/05:30pm 18.1 12.7 12.1 68 3.4 WSW 32 41 17 22 - - 1.4
26/05:00pm 20.3 15.6 13.3 64 4.1 W 30 41 16 22 - - 1.4
26/04:30pm 22.6 20.2 14.4 60 5.0 WSW 20 30 11 16 - - 1.4
26/04:00pm 20.8 17.7 14.5 67 3.8 WSW 24 33 13 18 - - 1.4
26/03:30pm 21.9 18.6 14.0 61 4.7 WSW 24 35 13 19 - - 1.4
26/03:00pm 21.8 18.3 14.4 63 4.5 WSW 26 41 14 22 - - 1.4
26/02:30pm 21.7 18.4 14.1 62 4.6 WSW 24 39 13 21 - - 1.4
26/02:00pm 21.8 19.5 14.7 64 4.3 WSW 20 35 11 19 - - 1.4
26/01:30pm 21.1 18.3 15.4 70 3.5 SW 24 37 13 20 - - 1.2
26/01:00pm 20.1 18.0 15.3 74 2.9 WSW 20 30 11 16 - - 1.2
26/12:30pm 19.3 17.0 15.6 79 2.3 W 22 30 12 16 - - 1.2
26/12:00pm 18.1 16.0 16.1 88 1.2 WSW 22 37 12 20 - - 1.2
26/11:30am 17.0 14.6 16.5 97 0.3 WSW 24 33 13 18 - - 1.2
26/11:00am 16.5 13.6 16.0 97 0.3 WSW 26 35 14 19 - - 1.2
26/10:30am 16.5 13.6 16.0 97 0.3 WSW 26 33 14 18 - - 1.2
26/10:00am 16.9 13.7 16.4 97 0.3 WSW 28 43 15 23 - - 0.8
26/09:30am 17.3 13.5 16.8 97 0.3 WSW 32 44 17 24 - - 0.6
26/09:00am 17.2 13.4 16.6 96 0.4 WSW 32 44 17 24 - - 13.2
26/08:30am 17.1 13.5 16.3 95 0.5 WSW 30 41 16 22 - - 6.0
26/08:00am 19.0 18.3 18.2 95 0.5 NNW 19 30 10 16 - - 0.8
26/07:30am 18.7 17.3 16.5 87 1.4 N 19 26 10 14 - - 0.2
26/07:00am 18.9 18.3 15.6 81 2.0 N 13 19 7 10 - - 0.2
26/06:30am 19.8 18.7 15.2 75 2.8 N 15 20 8 11 - - 0.0
26/06:00am 20.3 19.7 15.7 75 2.8 NNW 13 19 7 10 - - 0.0
26/05:30am 19.8 19.1 15.4 76 2.7 NNW 13 28 7 15 - - 0.0
26/05:00am 19.3 17.8 14.3 73 3.0 N 15 19 8 10 - - 0.0
26/04:30am 19.3 18.3 14.6 74 2.8 N 13 17 7 9 - - 0.0
26/04:00am 19.6 19.3 14.4 72 3.1 NNE 9 13 5 7 - - 0.0
26/03:30am 20.0 19.5 13.9 68 3.6 NE 9 13 5 7 - - 0.0
26/03:00am 20.6 20.0 13.6 64 4.1 WSW 9 15 5 8 - - 0.0
26/02:30am 20.4 17.7 13.4 64 4.1 SW 20 28 11 15 - - 0.0
26/02:00am 19.4 14.5 13.8 70 3.3 WSW 32 41 17 22 - - 0.0
26/01:30am 19.9 13.7 12.7 63 4.2 WSW 37 46 20 25 - - 0.0
26/01:00am 20.3 14.1 12.5 61 4.5 WSW 37 46 20 25 - - 0.0
26/12:30am 20.4 14.3 12.9 62 4.4 WSW 37 44 20 24 - - 0.0
26/12:00am 20.6 13.7 12.8 61 4.6 WSW 41 52 22 28 - - 0.0
 
Date/Time
EDT
Temp
°C
App
Temp
°C
Dew
Point
°C
Rel
Hum
%
Delta-T
°C
Wind Press
QNH
hPa
Press
MSL
hPa
Rain since
9am
mm
Dir  Spd
km/h
Gust
km/h
Spd
kts
Gust
kts
25/11:30pm 22.0 15.7 12.3 54 5.6 W 37 50 20 27 - - 0.0
25/11:23pm 22.7 17.8 11.4 49 6.5 W 28 39 15 21 - - 0.0
25/11:00pm 25.4 22.1 9.7 37 8.9 WSW 17 20 9 11 - - 0.0
25/10:30pm 25.8 21.7 8.8 34 9.5 WNW 20 28 11 15 - - 0.0
25/10:00pm 29.6 24.7 6.9 24 12.5 NW 22 32 12 17 - - 0.0
25/09:30pm 26.2 21.9 9.5 35 9.5 W 22 30 12 16 - - 0.0
25/09:24pm 26.9 22.8 8.8 32 10.2 WNW 20 30 11 16 - - 0.0
25/09:00pm 31.9 25.5 5.4 19 14.4 NNW 28 46 15 25 - - 0.0
25/08:30pm 32.1 27.1 4.8 18 14.7 N 20 32 11 17 - - 0.0
25/08:00pm 32.5 25.9 4.3 17 15.1 NNW 28 46 15 25 - - 0.0
25/07:44pm 32.5 25.9 4.3 17 15.1 NNW 28 56 15 30 - - 0.0
25/07:30pm 32.6 27.6 4.4 17 15.2 N 20 33 11 18 - - 0.0
25/07:00pm 32.9 28.5 4.6 17 15.3 NNW 17 32 9 17 - - 0.0
25/06:30pm 32.9 27.0 3.8 16 15.5 NNW 24 41 13 22 - - 0.0
25/06:00pm 32.9 28.1 4.6 17 15.3 NW 19 35 10 19 - - 0.0
25/05:30pm 33.0 26.5 4.7 17 15.3 NW 28 44 15 24 - - 0.0
25/05:00pm 33.0 28.0 4.7 17 15.3 NNW 20 35 11 19 - - 0.0
25/04:37pm 33.2 26.7 4.9 17 15.4 NW 28 54 15 29 - - 0.0
25/04:30pm 33.3 27.6 5.0 17 15.4 NNW 24 50 13 27 - - 0.0

Other formats

Comma delimited format used in spreadsheet applications
http://www.bom.gov.au/fwo/IDV60801/IDV60801.94881.axf

JavaScript Object Notation format (JSON) in row-major order
http://www.bom.gov.au/fwo/IDV60801/IDV60801.94881.json

Data quality

Most of these data are generated automatically and are frequently updated. Quality checks on data are not normally performed. It is possible for incorrect values to appear. Refer to information at About Latest Weather Observations and please check the disclaimer before using these data.